Ecokeeper — SVTY — position and weather

sailwx.info

Track history (hours):
 
Tides and Currents Weather Stations Pressure Air Temp Water Temp Dewpoint Dewpoint Depression Visibility Wind Speed Wind Dir Waves Ship Positions

Ecokeeper

Last reported at 2017-Feb-24 12:33 UTC. Time now 2017-Feb-25 08:57 UTC.
Position N 37°57' E 023°34'.

Length 90 m; draft 4.2 m.

Type: Tanker. MMSI: 240689000.

Date/timePositionNaut miles runAvg speedWind from/ knotsBaromVisibWave heightAir tempDewpointWater temp
2017-Feb-24 12:33N 37°57' E 023°34'0 0.0
2017-Feb-24 11:33N 37°57' E 023°34'0 0.0
2017-Feb-24 10:34N 37°57' E 023°34'0 0.0
2017-Feb-24 08:22N 37°57' E 023°34'0 0.0
2017-Feb-24 07:33N 37°57' E 023°34'0 0.0
2017-Feb-24 05:29N 37°57' E 023°34'4 4.4
2017-Feb-24 04:33N 38°01' E 023°35'1 1.0
2017-Feb-24 03:33N 38°02' E 023°36'0 0.0
2017-Feb-24 02:33N 38°02' E 023°36'0 0.0
2017-Feb-24 01:33N 38°02' E 023°36'0 0.0
2017-Feb-24 00:33N 38°02' E 023°36'0 0.0
2017-Feb-23 23:33N 38°02' E 023°36'0 0.0
2017-Feb-23 22:33N 38°02' E 023°36'0 0.0
2017-Feb-23 21:33N 38°02' E 023°36'0 0.0
2017-Feb-23 20:33N 38°02' E 023°36'0 0.0
2017-Feb-23 19:33N 38°02' E 023°36'0 0.0
2017-Feb-23 18:33N 38°02' E 023°36'0 0.0
2017-Feb-23 17:33N 38°02' E 023°36'0 0.0
2017-Feb-23 16:33N 38°02' E 023°36'0 0.0
2017-Feb-23 15:33N 38°02' E 023°36'0 0.0
2017-Feb-23 14:33N 38°02' E 023°36'0 0.0
2017-Feb-23 13:33N 38°02' E 023°36'0 0.0
2017-Feb-23 12:33N 38°02' E 023°36'0 0.0
2017-Feb-23 11:33N 38°02' E 023°36'0 0.0
2017-Feb-23 10:33N 38°02' E 023°36'0 0.0
2017-Feb-23 09:33N 38°02' E 023°36'1 0.6
2017-Feb-23 08:33N 38°02' E 023°35'4 4.4
2017-Feb-23 07:33N 37°57' E 023°33'3 3.0
2017-Feb-23 06:33N 37°57' E 023°37'0 0.0
2017-Feb-23 05:33N 37°57' E 023°37'0 0.0
2017-Feb-23 04:33N 37°57' E 023°37'0 0.0
2017-Feb-23 03:33N 37°57' E 023°37'0 0.0
2017-Feb-23 02:33N 37°57' E 023°37'0 0.0
2017-Feb-23 01:33N 37°57' E 023°37'0 0.0
2017-Feb-23 00:33N 37°57' E 023°37'0 0.0
2017-Feb-22 23:33N 37°57' E 023°37'0 0.0
2017-Feb-22 22:33N 37°57' E 023°37'0 0.0
2017-Feb-22 21:33N 37°57' E 023°37'0 0.0
2017-Feb-22 20:33N 37°57' E 023°37'0 0.0
2017-Feb-22 19:33N 37°57' E 023°37'0 0.0
2017-Feb-22 18:33N 37°57' E 023°37'0 0.0
2017-Feb-22 17:33N 37°57' E 023°37'0 0.0
2017-Feb-22 16:33N 37°57' E 023°37'0 0.0
2017-Feb-22 15:33N 37°57' E 023°37'0 0.0
2017-Feb-22 14:33N 37°57' E 023°37'0 0.0
2017-Feb-22 13:33N 37°57' E 023°37'0 0.0
2017-Feb-22 12:33N 37°57' E 023°37'0 0.0
2017-Feb-22 11:33N 37°57' E 023°37'0 0.0
2017-Feb-22 10:33N 37°57' E 023°37'0 0.1
2017-Feb-22 09:33N 37°57' E 023°37'2 2.4
2017-Feb-22 08:33N 37°57' E 023°34'0 0.0
2017-Feb-22 07:33N 37°57' E 023°34'0 0.0
2017-Feb-22 06:33N 37°57' E 023°34'0 0.0
2017-Feb-21 14:34N 37°57' E 023°33'4 4.2
2017-Feb-21 13:34N 38°01' E 023°31'0 0.0
2017-Feb-21 12:34N 38°01' E 023°31'0 0.0
2017-Feb-21 11:34N 38°01' E 023°31'0 0.0
2017-Feb-21 10:33N 38°01' E 023°31'1 0.6
2017-Feb-21 09:34N 38°01' E 023°32'6 5.8
2017-Feb-21 08:34N 37°55' E 023°34'5 5.2
2017-Feb-21 07:33N 37°50' E 023°31'0 0.0
2017-Feb-21 06:33N 37°50' E 023°31'4 4.0
2017-Feb-21 05:34N 37°54' E 023°33'3 0.2
2017-Feb-20 17:06N 37°57' E 023°34'2 3.2
2017-Feb-20 16:33N 37°57' E 023°36'1 0.7
2017-Feb-20 15:33N 37°57' E 023°37'0 0.0
2017-Feb-20 14:33N 37°57' E 023°37'0 0.2
2017-Feb-20 13:33N 37°57' E 023°37'7 6.7
2017-Feb-20 12:33N 37°51' E 023°31'0 0.1
2017-Feb-20 11:33N 37°51' E 023°31'0 0.2
2017-Feb-20 10:33N 37°51' E 023°31'0 0.1
2017-Feb-20 09:33N 37°51' E 023°31'0 0.0
2017-Feb-20 08:33N 37°51' E 023°31'0 0.0
2017-Feb-20 07:33N 37°51' E 023°31'0 0.1
2017-Feb-20 06:33N 37°51' E 023°31'3 2.7
2017-Feb-20 05:33N 37°54' E 023°33'3 0.2
2017-Feb-19 15:33N 37°57' E 023°35'2 1.7
2017-Feb-19 14:33N 37°57' E 023°37'0 0.0
2017-Feb-19 13:33N 37°57' E 023°37'2 1.5
2017-Feb-19 12:34N 37°56' E 023°35'4 4.0
2017-Feb-19 11:33N 37°52' E 023°32'1 1.5
2017-Feb-19 10:33N 37°51' E 023°31'0 0.0
2017-Feb-19 09:33N 37°51' E 023°31'0 0.1
2017-Feb-19 08:33N 37°51' E 023°31'0 0.0
2017-Feb-19 07:33N 37°51' E 023°31'0 0.0
2017-Feb-19 06:33N 37°51' E 023°31'2 2.4
2017-Feb-19 05:33N 37°53' E 023°33'4 0.3
2017-Feb-18 16:19N 37°57' E 023°34'2 3.2
2017-Feb-18 15:33N 37°57' E 023°37'0 0.0
2017-Feb-18 14:33N 37°57' E 023°37'0 0.0
2017-Feb-18 13:33N 37°57' E 023°37'2 2.1
2017-Feb-18 12:33N 37°55' E 023°35'5 4.8
2017-Feb-18 11:33N 37°51' E 023°31'0 0.1
2017-Feb-18 10:33N 37°51' E 023°31'0 0.0
2017-Feb-18 09:33N 37°51' E 023°31'0 0.1
2017-Feb-18 08:33N 37°51' E 023°31'0 0.1
2017-Feb-18 07:33N 37°51' E 023°31'1 1.0
2017-Feb-18 06:33N 37°52' E 023°32'5 5.3
2017-Feb-18 05:33N 37°57' E 023°34'0 0.0
2017-Feb-17 16:28N 37°57' E 023°34'2 2.6
2017-Feb-17 15:34N 37°57' E 023°37'0 0.0
2017-Feb-17 14:34N 37°57' E 023°37'0 0.0
2017-Feb-17 13:33N 37°57' E 023°37'1 1.3
2017-Feb-17 12:34N 37°56' E 023°36'6 5.7
2017-Feb-17 11:34N 37°51' E 023°31'0 0.1
2017-Feb-17 10:33N 37°51' E 023°31'0 0.0
2017-Feb-17 09:34N 37°51' E 023°31'0 0.1
2017-Feb-17 08:34N 37°51' E 023°31'0 0.1
2017-Feb-17 07:34N 37°51' E 023°31'0 0.1
2017-Feb-17 06:34N 37°51' E 023°31'3 3.2
2017-Feb-17 05:34N 37°54' E 023°33'3 0.2
2017-Feb-16 17:26N 37°57' E 023°34'2 2.7
2017-Feb-16 16:33N 37°57' E 023°37'0 0.0
2017-Feb-16 15:34N 37°57' E 023°37'2 2.5
2017-Feb-16 14:33N 37°55' E 023°35'5 4.7
2017-Feb-16 13:34N 37°51' E 023°31'0 0.0
2017-Feb-16 12:33N 37°51' E 023°31'0 0.0
2017-Feb-16 11:34N 37°51' E 023°31'0 0.0
2017-Feb-16 10:33N 37°51' E 023°31'0 0.0
2017-Feb-16 09:33N 37°51' E 023°31'0 0.0
2017-Feb-16 08:33N 37°51' E 023°31'6 5.8
2017-Feb-16 07:33N 37°56' E 023°35'1 1.0
2017-Feb-16 06:33N 37°57' E 023°34'0 0.0
2017-Feb-16 05:33N 37°57' E 023°34'0 0.0
2017-Feb-16 04:33N 37°57' E 023°34'0 0.0
2017-Feb-16 03:34N 37°57' E 023°34'0 0.0
2017-Feb-16 02:33N 37°57' E 023°34'0 0.0
2017-Feb-16 01:33N 37°57' E 023°34'0 0.0
2017-Feb-15 16:26N 37°57' E 023°34'2 2.7
2017-Feb-15 15:33N 37°57' E 023°37'0 0.0
2017-Feb-15 14:33N 37°57' E 023°37'0 0.0
2017-Feb-15 13:33N 37°57' E 023°37'2 1.9
2017-Feb-15 12:33N 37°55' E 023°35'5 5.1
2017-Feb-15 11:33N 37°51' E 023°31'0 0.0
2017-Feb-15 10:33N 37°51' E 023°31'0 0.0
2017-Feb-15 09:33N 37°51' E 023°31'0 0.0
2017-Feb-15 08:33N 37°51' E 023°31'0 0.1
2017-Feb-15 07:33N 37°51' E 023°31'0 0.0
2017-Feb-15 06:33N 37°51' E 023°31'3 3.0
2017-Feb-15 05:34N 37°54' E 023°33'3 0.2
2017-Feb-14 16:31N 37°57' E 023°34'2 2.5
2017-Feb-14 15:33N 37°57' E 023°37'0 0.0
2017-Feb-14 14:34N 37°57' E 023°37'0 0.0
2017-Feb-14 13:34N 37°57' E 023°37'1 1.1
2017-Feb-14 12:34N 37°56' E 023°36'  
Track history (hours):
 
Tides and Currents Weather Stations Pressure Air Temp Water Temp Dewpoint Dewpoint Depression Visibility Wind Speed Wind Dir Waves Ship Positions

Ecokeeper

Last reported at 2017-Feb-24 12:33 UTC. Time now 2017-Feb-25 08:57 UTC.
Position N 37°57' E 023°34'.

Length 90 m; draft 4.2 m.

Type: Tanker. MMSI: 240689000.

Date/timePositionNaut miles runAvg speedWind from/ knotsBaromVisibWave heightAir tempDewpointWater temp
2017-Feb-24 12:33N 37°57' E 023°34'0 0.0
2017-Feb-24 11:33N 37°57' E 023°34'0 0.0
2017-Feb-24 10:34N 37°57' E 023°34'0 0.0
2017-Feb-24 08:22N 37°57' E 023°34'0 0.0
2017-Feb-24 07:33N 37°57' E 023°34'0 0.0
2017-Feb-24 05:29N 37°57' E 023°34'4 4.4
2017-Feb-24 04:33N 38°01' E 023°35'1 1.0
2017-Feb-24 03:33N 38°02' E 023°36'0 0.0
2017-Feb-24 02:33N 38°02' E 023°36'0 0.0
2017-Feb-24 01:33N 38°02' E 023°36'0 0.0
2017-Feb-24 00:33N 38°02' E 023°36'0 0.0
2017-Feb-23 23:33N 38°02' E 023°36'0 0.0
2017-Feb-23 22:33N 38°02' E 023°36'0 0.0
2017-Feb-23 21:33N 38°02' E 023°36'0 0.0
2017-Feb-23 20:33N 38°02' E 023°36'0 0.0
2017-Feb-23 19:33N 38°02' E 023°36'0 0.0
2017-Feb-23 18:33N 38°02' E 023°36'0 0.0
2017-Feb-23 17:33N 38°02' E 023°36'0 0.0
2017-Feb-23 16:33N 38°02' E 023°36'0 0.0
2017-Feb-23 15:33N 38°02' E 023°36'0 0.0
2017-Feb-23 14:33N 38°02' E 023°36'0 0.0
2017-Feb-23 13:33N 38°02' E 023°36'0 0.0
2017-Feb-23 12:33N 38°02' E 023°36'0 0.0
2017-Feb-23 11:33N 38°02' E 023°36'0 0.0
2017-Feb-23 10:33N 38°02' E 023°36'0 0.0
2017-Feb-23 09:33N 38°02' E 023°36'1 0.6
2017-Feb-23 08:33N 38°02' E 023°35'4 4.4
2017-Feb-23 07:33N 37°57' E 023°33'3 3.0
2017-Feb-23 06:33N 37°57' E 023°37'0 0.0
2017-Feb-23 05:33N 37°57' E 023°37'0 0.0
2017-Feb-23 04:33N 37°57' E 023°37'0 0.0
2017-Feb-23 03:33N 37°57' E 023°37'0 0.0
2017-Feb-23 02:33N 37°57' E 023°37'0 0.0
2017-Feb-23 01:33N 37°57' E 023°37'0 0.0
2017-Feb-23 00:33N 37°57' E 023°37'0 0.0
2017-Feb-22 23:33N 37°57' E 023°37'0 0.0
2017-Feb-22 22:33N 37°57' E 023°37'0 0.0
2017-Feb-22 21:33N 37°57' E 023°37'0 0.0
2017-Feb-22 20:33N 37°57' E 023°37'0 0.0
2017-Feb-22 19:33N 37°57' E 023°37'0 0.0
2017-Feb-22 18:33N 37°57' E 023°37'0 0.0
2017-Feb-22 17:33N 37°57' E 023°37'0 0.0
2017-Feb-22 16:33N 37°57' E 023°37'0 0.0
2017-Feb-22 15:33N 37°57' E 023°37'0 0.0
2017-Feb-22 14:33N 37°57' E 023°37'0 0.0
2017-Feb-22 13:33N 37°57' E 023°37'0 0.0
2017-Feb-22 12:33N 37°57' E 023°37'0 0.0
2017-Feb-22 11:33N 37°57' E 023°37'0 0.0
2017-Feb-22 10:33N 37°57' E 023°37'0 0.1
2017-Feb-22 09:33N 37°57' E 023°37'2 2.4
2017-Feb-22 08:33N 37°57' E 023°34'0 0.0
2017-Feb-22 07:33N 37°57' E 023°34'0 0.0
2017-Feb-22 06:33N 37°57' E 023°34'0 0.0
2017-Feb-21 14:34N 37°57' E 023°33'4 4.2
2017-Feb-21 13:34N 38°01' E 023°31'0 0.0
2017-Feb-21 12:34N 38°01' E 023°31'0 0.0
2017-Feb-21 11:34N 38°01' E 023°31'0 0.0
2017-Feb-21 10:33N 38°01' E 023°31'1 0.6
2017-Feb-21 09:34N 38°01' E 023°32'6 5.8
2017-Feb-21 08:34N 37°55' E 023°34'5 5.2
2017-Feb-21 07:33N 37°50' E 023°31'0 0.0
2017-Feb-21 06:33N 37°50' E 023°31'4 4.0
2017-Feb-21 05:34N 37°54' E 023°33'3 0.2
2017-Feb-20 17:06N 37°57' E 023°34'2 3.2
2017-Feb-20 16:33N 37°57' E 023°36'1 0.7
2017-Feb-20 15:33N 37°57' E 023°37'0 0.0
2017-Feb-20 14:33N 37°57' E 023°37'0 0.2
2017-Feb-20 13:33N 37°57' E 023°37'7 6.7
2017-Feb-20 12:33N 37°51' E 023°31'0 0.1
2017-Feb-20 11:33N 37°51' E 023°31'0 0.2
2017-Feb-20 10:33N 37°51' E 023°31'0 0.1
2017-Feb-20 09:33N 37°51' E 023°31'0 0.0
2017-Feb-20 08:33N 37°51' E 023°31'0 0.0
2017-Feb-20 07:33N 37°51' E 023°31'0 0.1
2017-Feb-20 06:33N 37°51' E 023°31'3 2.7
2017-Feb-20 05:33N 37°54' E 023°33'3 0.2
2017-Feb-19 15:33N 37°57' E 023°35'2 1.7
2017-Feb-19 14:33N 37°57' E 023°37'0 0.0
2017-Feb-19 13:33N 37°57' E 023°37'2 1.5
2017-Feb-19 12:34N 37°56' E 023°35'4 4.0
2017-Feb-19 11:33N 37°52' E 023°32'1 1.5
2017-Feb-19 10:33N 37°51' E 023°31'0 0.0
2017-Feb-19 09:33N 37°51' E 023°31'0 0.1
2017-Feb-19 08:33N 37°51' E 023°31'0 0.0
2017-Feb-19 07:33N 37°51' E 023°31'0 0.0
2017-Feb-19 06:33N 37°51' E 023°31'2 2.4
2017-Feb-19 05:33N 37°53' E 023°33'4 0.3
2017-Feb-18 16:19N 37°57' E 023°34'2 3.2
2017-Feb-18 15:33N 37°57' E 023°37'0 0.0
2017-Feb-18 14:33N 37°57' E 023°37'0 0.0
2017-Feb-18 13:33N 37°57' E 023°37'2 2.1
2017-Feb-18 12:33N 37°55' E 023°35'5 4.8
2017-Feb-18 11:33N 37°51' E 023°31'0 0.1
2017-Feb-18 10:33N 37°51' E 023°31'0 0.0
2017-Feb-18 09:33N 37°51' E 023°31'0 0.1
2017-Feb-18 08:33N 37°51' E 023°31'0 0.1
2017-Feb-18 07:33N 37°51' E 023°31'1 1.0
2017-Feb-18 06:33N 37°52' E 023°32'5 5.3
2017-Feb-18 05:33N 37°57' E 023°34'0 0.0
2017-Feb-17 16:28N 37°57' E 023°34'2 2.6
2017-Feb-17 15:34N 37°57' E 023°37'0 0.0
2017-Feb-17 14:34N 37°57' E 023°37'0 0.0
2017-Feb-17 13:33N 37°57' E 023°37'1 1.3
2017-Feb-17 12:34N 37°56' E 023°36'6 5.7
2017-Feb-17 11:34N 37°51' E 023°31'0 0.1
2017-Feb-17 10:33N 37°51' E 023°31'0 0.0
2017-Feb-17 09:34N 37°51' E 023°31'0 0.1
2017-Feb-17 08:34N 37°51' E 023°31'0 0.1
2017-Feb-17 07:34N 37°51' E 023°31'0 0.1
2017-Feb-17 06:34N 37°51' E 023°31'3 3.2
2017-Feb-17 05:34N 37°54' E 023°33'3 0.2
2017-Feb-16 17:26N 37°57' E 023°34'2 2.7
2017-Feb-16 16:33N 37°57' E 023°37'0 0.0
2017-Feb-16 15:34N 37°57' E 023°37'2 2.5
2017-Feb-16 14:33N 37°55' E 023°35'5 4.7
2017-Feb-16 13:34N 37°51' E 023°31'0 0.0
2017-Feb-16 12:33N 37°51' E 023°31'0 0.0
2017-Feb-16 11:34N 37°51' E 023°31'0 0.0
2017-Feb-16 10:33N 37°51' E 023°31'0 0.0
2017-Feb-16 09:33N 37°51' E 023°31'0 0.0
2017-Feb-16 08:33N 37°51' E 023°31'6 5.8
2017-Feb-16 07:33N 37°56' E 023°35'1 1.0
2017-Feb-16 06:33N 37°57' E 023°34'0 0.0
2017-Feb-16 05:33N 37°57' E 023°34'0 0.0
2017-Feb-16 04:33N 37°57' E 023°34'0 0.0
2017-Feb-16 03:34N 37°57' E 023°34'0 0.0
2017-Feb-16 02:33N 37°57' E 023°34'0 0.0
2017-Feb-16 01:33N 37°57' E 023°34'0 0.0
2017-Feb-15 16:26N 37°57' E 023°34'2 2.7
2017-Feb-15 15:33N 37°57' E 023°37'0 0.0
2017-Feb-15 14:33N 37°57' E 023°37'0 0.0
2017-Feb-15 13:33N 37°57' E 023°37'2 1.9
2017-Feb-15 12:33N 37°55' E 023°35'5 5.1
2017-Feb-15 11:33N 37°51' E 023°31'0 0.0
2017-Feb-15 10:33N 37°51' E 023°31'0 0.0
2017-Feb-15 09:33N 37°51' E 023°31'0 0.0
2017-Feb-15 08:33N 37°51' E 023°31'0 0.1
2017-Feb-15 07:33N 37°51' E 023°31'0 0.0
2017-Feb-15 06:33N 37°51' E 023°31'3 3.0
2017-Feb-15 05:34N 37°54' E 023°33'3 0.2
2017-Feb-14 16:31N 37°57' E 023°34'2 2.5
2017-Feb-14 15:33N 37°57' E 023°37'0 0.0
2017-Feb-14 14:34N 37°57' E 023°37'0 0.0
2017-Feb-14 13:34N 37°57' E 023°37'1 1.1
2017-Feb-14 12:34N 37°56' E 023°36'  

Dump ship's entire track history